createdAt,value
2024-01-09T00:08:17.668Z,68.18
2024-01-09T00:18:21.872Z,67.72
2024-01-09T00:28:24.689Z,68.62
2024-01-09T00:38:28.909Z,68.80
2024-01-09T00:48:31.896Z,69.06
2024-01-09T00:58:36.188Z,68.78
2024-01-09T01:08:39.452Z,69.04
2024-01-09T01:18:44.069Z,69.40
2024-01-09T01:28:47.441Z,69.77
2024-01-09T01:38:51.728Z,69.51
2024-01-09T01:48:54.590Z,69.82
2024-01-09T01:58:58.826Z,70.14
2024-01-09T02:09:01.549Z,69.62
2024-01-09T02:19:06.289Z,70.66
2024-01-09T02:29:11.235Z,70.65
2024-01-09T02:39:15.397Z,70.37
2024-01-09T02:49:18.716Z,70.70
2024-01-09T02:59:25.198Z,70.57
2024-01-09T03:09:28.325Z,70.02
2024-01-09T03:19:33.362Z,69.84
2024-01-09T03:29:36.172Z,70.71
2024-01-09T03:39:40.501Z,70.07
2024-01-09T03:49:43.252Z,69.78
2024-01-09T03:59:47.423Z,69.40
2024-01-09T04:09:50.210Z,69.89
2024-01-09T04:19:54.257Z,69.71
2024-01-09T04:29:57.059Z,69.41
2024-01-09T04:40:01.445Z,70.00
2024-01-09T04:50:04.469Z,69.31
2024-01-09T05:00:10.496Z,69.56
2024-01-09T05:10:13.390Z,69.29
2024-01-09T05:20:18.048Z,68.93
2024-01-09T05:30:20.846Z,69.17
2024-01-09T05:40:24.886Z,68.76
2024-01-09T05:50:27.654Z,68.88
2024-01-09T06:00:31.765Z,68.15
2024-01-09T06:10:35.857Z,68.11
2024-01-09T06:20:40.094Z,68.35
2024-01-09T06:30:43.003Z,68.51
2024-01-09T06:40:47.397Z,67.55
2024-01-09T06:50:50.173Z,68.18
2024-01-09T07:00:54.605Z,67.69
2024-01-09T07:10:58.457Z,67.59
2024-01-09T07:21:03.209Z,67.64
2024-01-09T07:31:06.442Z,67.17
2024-01-09T07:41:11.403Z,67.14
2024-01-09T07:51:14.172Z,66.29
2024-01-09T08:01:20.355Z,65.56
2024-01-09T08:11:23.772Z,64.90
2024-01-09T08:21:28.106Z,62.51
2024-01-09T08:31:30.843Z,59.70
2024-01-09T08:41:34.956Z,57.63
2024-01-09T08:51:37.709Z,55.12
2024-01-09T09:01:42.093Z,53.22
2024-01-09T09:11:45.231Z,50.17
2024-01-09T09:21:49.782Z,46.66
2024-01-09T09:31:57.718Z,45.26
2024-01-09T09:42:02.052Z,41.96
2024-01-09T09:52:05.856Z,39.92
2024-01-09T10:02:14.739Z,37.48
2024-01-09T10:12:20.062Z,37.72
2024-01-09T10:22:25.158Z,35.35
2024-01-09T10:32:28.144Z,35.66
2024-01-09T10:42:33.086Z,34.30
2024-01-09T10:52:36.243Z,34.09
2024-01-09T11:02:40.675Z,34.34
2024-01-09T11:12:44.911Z,33.43
2024-01-09T11:22:49.741Z,31.87
2024-01-09T11:32:52.856Z,31.59
2024-01-09T11:43:00.383Z,31.71
2024-01-09T11:53:03.280Z,31.14
2024-01-09T12:03:07.668Z,31.85
2024-01-09T12:13:10.449Z,30.06
2024-01-09T12:23:17.211Z,29.71
2024-01-09T12:33:22.623Z,30.40
2024-01-09T12:43:27.201Z,28.89
2024-01-09T12:53:32.588Z,29.44
2024-01-09T13:03:37.222Z,29.62
2024-01-09T13:13:40.801Z,29.58
2024-01-09T13:23:50.152Z,29.95
2024-01-09T13:33:54.967Z,30.23
2024-01-09T13:43:59.548Z,30.61
2024-01-09T13:54:03.681Z,30.35
2024-01-09T14:04:13.028Z,30.58
2024-01-09T14:14:16.830Z,31.21
2024-01-09T14:24:20.742Z,31.61
2024-01-09T14:34:23.548Z,34.06
2024-01-09T14:44:27.653Z,36.90
2024-01-09T14:54:30.402Z,37.53
2024-01-09T15:04:34.504Z,38.78
2024-01-09T15:14:37.755Z,39.15
2024-01-09T15:24:42.049Z,39.46
2024-01-09T15:34:45.172Z,39.46
2024-01-09T15:44:50.518Z,39.66
2024-01-09T15:54:53.896Z,40.07
2024-01-09T16:04:58.432Z,40.11
2024-01-09T16:15:00.976Z,40.31
2024-01-09T16:25:09.783Z,40.50
2024-01-09T16:35:12.917Z,41.01
2024-01-09T16:45:17.418Z,41.13
2024-01-09T16:55:20.279Z,40.63
2024-01-09T17:05:24.513Z,41.44
2024-01-09T17:15:27.796Z,41.24
2024-01-09T17:25:32.018Z,42.49
2024-01-09T17:35:34.841Z,41.85
2024-01-09T17:45:40.162Z,42.07
2024-01-09T17:55:43.390Z,43.21
2024-01-09T18:05:50.216Z,45.48
2024-01-09T18:15:53.931Z,44.03
2024-01-09T18:25:58.193Z,44.91
2024-01-09T18:36:02.666Z,44.79
2024-01-09T18:46:06.916Z,48.21
2024-01-09T18:56:09.961Z,47.50
2024-01-09T19:06:15.552Z,48.47
2024-01-09T19:16:18.540Z,47.56
2024-01-09T19:26:32.792Z,49.03
2024-01-09T19:36:35.556Z,49.74
2024-01-09T19:46:42.491Z,47.49
2024-01-09T19:56:45.486Z,46.74
2024-01-09T20:06:49.753Z,46.42
2024-01-09T20:16:52.623Z,47.84
2024-01-09T20:26:59.632Z,47.97
2024-01-09T20:37:03.075Z,48.64
2024-01-09T20:47:07.696Z,48.67
2024-01-09T20:57:10.497Z,49.16
2024-01-09T21:07:15.070Z,49.17
2024-01-09T21:17:17.985Z,49.71
2024-01-09T21:27:22.264Z,49.29
2024-01-09T21:37:26.098Z,49.39
2024-01-09T21:47:30.294Z,50.93
2024-01-09T21:57:33.331Z,50.60
2024-01-09T22:07:37.382Z,50.10
2024-01-09T22:17:41.784Z,51.07
2024-01-09T22:27:46.237Z,51.93
2024-01-09T22:37:49.029Z,52.07
2024-01-09T22:47:53.316Z,52.88
2024-01-09T22:57:56.337Z,52.88
2024-01-09T23:08:00.692Z,53.42
2024-01-09T23:18:03.564Z,53.61
2024-01-09T23:28:08.290Z,54.01
2024-01-09T23:38:11.311Z,55.70
2024-01-09T23:48:15.896Z,56.99
2024-01-09T23:58:18.606Z,55.82
